sensor_id;sensor_type;location;lat;lon;timestamp;temperature;humidity
59098;DHT22;44883;52.760;6.610;2022-11-20T00:02:19;-2.70;99.90
59098;DHT22;44883;52.760;6.610;2022-11-20T00:04:44;-2.70;99.90
59098;DHT22;44883;52.760;6.610;2022-11-20T00:07:10;-2.70;99.90
59098;DHT22;44883;52.760;6.610;2022-11-20T00:09:35;-2.70;99.90
59098;DHT22;44883;52.760;6.610;2022-11-20T00:12:01;-2.70;99.90
59098;DHT22;44883;52.760;6.610;2022-11-20T00:14:26;-2.60;99.90
59098;DHT22;44883;52.760;6.610;2022-11-20T00:16:52;-2.60;99.90
59098;DHT22;44883;52.760;6.610;2022-11-20T00:19:18;-2.60;99.90
59098;DHT22;44883;52.760;6.610;2022-11-20T00:21:43;-2.60;99.90
59098;DHT22;44883;52.760;6.610;2022-11-20T00:24:09;-2.70;99.90
59098;DHT22;44883;52.760;6.610;2022-11-20T00:26:36;-2.70;99.90
59098;DHT22;44883;52.760;6.610;2022-11-20T00:29:02;-2.70;99.90
59098;DHT22;44883;52.760;6.610;2022-11-20T00:31:29;-2.60;99.90
59098;DHT22;44883;52.760;6.610;2022-11-20T00:33:55;-2.50;99.90
59098;DHT22;44883;52.760;6.610;2022-11-20T00:36:23;-2.60;99.90
59098;DHT22;44883;52.760;6.610;2022-11-20T00:38:56;-2.50;99.90
59098;DHT22;44883;52.760;6.610;2022-11-20T00:41:23;-2.60;99.90
59098;DHT22;44883;52.760;6.610;2022-11-20T00:43:50;-2.50;99.90
59098;DHT22;44883;52.760;6.610;2022-11-20T00:46:18;-2.50;99.90
59098;DHT22;44883;52.760;6.610;2022-11-20T00:48:45;-2.40;99.90
59098;DHT22;44883;52.760;6.610;2022-11-20T00:51:18;-2.40;99.90
59098;DHT22;44883;52.760;6.610;2022-11-20T00:53:44;-2.40;99.90
59098;DHT22;44883;52.760;6.610;2022-11-20T00:56:12;-2.40;99.90
59098;DHT22;44883;52.760;6.610;2022-11-20T00:58:40;-2.30;99.90
59098;DHT22;44883;52.760;6.610;2022-11-20T01:01:15;-2.20;99.90
59098;DHT22;44883;52.760;6.610;2022-11-20T01:03:46;-2.20;99.90
59098;DHT22;44883;52.760;6.610;2022-11-20T01:06:22;-2.10;99.90
59098;DHT22;44883;52.760;6.610;2022-11-20T01:08:49;-2.10;99.90
59098;DHT22;44883;52.760;6.610;2022-11-20T01:11:18;-2.00;99.90
59098;DHT22;44883;52.760;6.610;2022-11-20T01:13:45;-2.00;99.90
59098;DHT22;44883;52.760;6.610;2022-11-20T01:16:13;-1.90;99.90
59098;DHT22;44883;52.760;6.610;2022-11-20T01:18:41;-1.90;99.90
59098;DHT22;44883;52.760;6.610;2022-11-20T01:21:18;-1.90;99.90
59098;DHT22;44883;52.760;6.610;2022-11-20T01:23:44;-1.80;99.90
59098;DHT22;44883;52.760;6.610;2022-11-20T01:26:13;-1.90;99.90
59098;DHT22;44883;52.760;6.610;2022-11-20T01:28:39;-1.80;99.90
59098;DHT22;44883;52.760;6.610;2022-11-20T01:31:21;-1.80;99.90
59098;DHT22;44883;52.760;6.610;2022-11-20T01:33:49;-1.90;99.90
59098;DHT22;44883;52.760;6.610;2022-11-20T01:36:16;-1.90;99.90
59098;DHT22;44883;52.760;6.610;2022-11-20T01:38:42;-1.80;99.90
59098;DHT22;44883;52.760;6.610;2022-11-20T01:41:09;-1.80;99.90
59098;DHT22;44883;52.760;6.610;2022-11-20T01:43:35;-1.80;99.90
59098;DHT22;44883;52.760;6.610;2022-11-20T01:46:16;-1.80;99.90
59098;DHT22;44883;52.760;6.610;2022-11-20T01:48:57;-1.80;99.90
59098;DHT22;44883;52.760;6.610;2022-11-20T01:51:57;-1.80;99.90
59098;DHT22;44883;52.760;6.610;2022-11-20T01:54:30;-1.80;99.90
59098;DHT22;44883;52.760;6.610;2022-11-20T01:56:59;-1.80;99.90
59098;DHT22;44883;52.760;6.610;2022-11-20T01:59:28;-1.80;99.90
59098;DHT22;44883;52.760;6.610;2022-11-20T02:01:54;-1.70;99.90
59098;DHT22;44883;52.760;6.610;2022-11-20T02:04:20;-1.70;99.90
59098;DHT22;44883;52.760;6.610;2022-11-20T02:06:57;-1.60;99.90
59098;DHT22;44883;52.760;6.610;2022-11-20T02:09:24;-1.60;99.90
59098;DHT22;44883;52.760;6.610;2022-11-20T02:11:49;-1.50;99.90
59098;DHT22;44883;52.760;6.610;2022-11-20T02:14:15;-1.50;99.90
59098;DHT22;44883;52.760;6.610;2022-11-20T02:16:45;-1.40;99.90
59098;DHT22;44883;52.760;6.610;2022-11-20T02:22:09;-1.50;99.90
59098;DHT22;44883;52.760;6.610;2022-11-20T02:24:36;-1.40;99.90
59098;DHT22;44883;52.760;6.610;2022-11-20T02:27:14;-1.40;99.90
59098;DHT22;44883;52.760;6.610;2022-11-20T02:30:02;-1.40;99.90
59098;DHT22;44883;52.760;6.610;2022-11-20T02:32:32;-1.40;99.90
59098;DHT22;44883;52.760;6.610;2022-11-20T02:35:35;-1.40;99.90
59098;DHT22;44883;52.760;6.610;2022-11-20T02:37:56;-1.30;99.90
59098;DHT22;44883;52.760;6.610;2022-11-20T02:40:22;-1.30;99.90
59098;DHT22;44883;52.760;6.610;2022-11-20T02:42:55;-1.30;99.90
59098;DHT22;44883;52.760;6.610;2022-11-20T02:45:21;-1.30;99.90
59098;DHT22;44883;52.760;6.610;2022-11-20T02:47:48;-1.30;99.90
59098;DHT22;44883;52.760;6.610;2022-11-20T02:50:13;-1.20;99.90
59098;DHT22;44883;52.760;6.610;2022-11-20T02:52:39;-1.20;99.90
59098;DHT22;44883;52.760;6.610;2022-11-20T02:55:05;-1.20;99.90
59098;DHT22;44883;52.760;6.610;2022-11-20T02:57:30;-1.20;99.90
59098;DHT22;44883;52.760;6.610;2022-11-20T02:59:56;-1.20;99.90
59098;DHT22;44883;52.760;6.610;2022-11-20T03:02:22;-1.20;99.90
59098;DHT22;44883;52.760;6.610;2022-11-20T03:04:47;-1.20;99.90
59098;DHT22;44883;52.760;6.610;2022-11-20T03:07:13;-1.20;99.90
59098;DHT22;44883;52.760;6.610;2022-11-20T03:09:38;-1.10;99.90
59098;DHT22;44883;52.760;6.610;2022-11-20T03:12:04;-1.10;99.90
59098;DHT22;44883;52.760;6.610;2022-11-20T03:14:30;-1.10;99.90
59098;DHT22;44883;52.760;6.610;2022-11-20T03:16:56;-1.10;99.90
59098;DHT22;44883;52.760;6.610;2022-11-20T03:19:22;-1.10;99.90
59098;DHT22;44883;52.760;6.610;2022-11-20T03:21:48;-1.10;99.90
59098;DHT22;44883;52.760;6.610;2022-11-20T03:24:13;-1.10;99.90
59098;DHT22;44883;52.760;6.610;2022-11-20T03:26:40;-1.10;99.90
59098;DHT22;44883;52.760;6.610;2022-11-20T03:29:05;-1.10;99.90
59098;DHT22;44883;52.760;6.610;2022-11-20T03:31:39;-1.00;99.90
59098;DHT22;44883;52.760;6.610;2022-11-20T03:34:09;-1.10;99.90
59098;DHT22;44883;52.760;6.610;2022-11-20T03:36:41;-1.10;99.90
59098;DHT22;44883;52.760;6.610;2022-11-20T03:39:07;-1.10;99.90
59098;DHT22;44883;52.760;6.610;2022-11-20T03:41:37;-1.10;99.90
59098;DHT22;44883;52.760;6.610;2022-11-20T03:44:05;-1.10;99.90
59098;DHT22;44883;52.760;6.610;2022-11-20T03:46:31;-1.10;99.90
59098;DHT22;44883;52.760;6.610;2022-11-20T03:48:57;-1.00;99.90
59098;DHT22;44883;52.760;6.610;2022-11-20T03:51:24;-1.10;99.90
59098;DHT22;44883;52.760;6.610;2022-11-20T03:53:53;-1.10;99.90
59098;DHT22;44883;52.760;6.610;2022-11-20T03:56:23;-1.00;99.90
59098;DHT22;44883;52.760;6.610;2022-11-20T03:58:49;-1.00;99.90
59098;DHT22;44883;52.760;6.610;2022-11-20T04:01:21;-1.00;99.90
59098;DHT22;44883;52.760;6.610;2022-11-20T04:03:47;-1.00;99.90
59098;DHT22;44883;52.760;6.610;2022-11-20T04:06:15;-1.00;99.90
59098;DHT22;44883;52.760;6.610;2022-11-20T04:08:41;-1.00;99.90
59098;DHT22;44883;52.760;6.610;2022-11-20T04:11:22;-1.00;99.90
59098;DHT22;44883;52.760;6.610;2022-11-20T04:13:50;-1.00;99.90
59098;DHT22;44883;52.760;6.610;2022-11-20T04:16:16;-1.00;99.90
59098;DHT22;44883;52.760;6.610;2022-11-20T04:18:42;-1.00;99.90
59098;DHT22;44883;52.760;6.610;2022-11-20T04:21:08;-1.00;99.90
59098;DHT22;44883;52.760;6.610;2022-11-20T04:23:34;-1.00;99.90
59098;DHT22;44883;52.760;6.610;2022-11-20T04:26:08;-0.90;99.90
59098;DHT22;44883;52.760;6.610;2022-11-20T04:28:34;-1.00;99.90
59098;DHT22;44883;52.760;6.610;2022-11-20T04:31:05;-1.00;99.90
59098;DHT22;44883;52.760;6.610;2022-11-20T04:33:31;-0.90;99.90
59098;DHT22;44883;52.760;6.610;2022-11-20T04:36:04;-1.00;99.90
59098;DHT22;44883;52.760;6.610;2022-11-20T04:38:31;-1.00;99.90
59098;DHT22;44883;52.760;6.610;2022-11-20T04:40:58;-0.90;99.90
59098;DHT22;44883;52.760;6.610;2022-11-20T04:43:23;-0.90;99.90
59098;DHT22;44883;52.760;6.610;2022-11-20T04:45:56;-0.90;99.90
59098;DHT22;44883;52.760;6.610;2022-11-20T04:48:23;-0.90;99.90
59098;DHT22;44883;52.760;6.610;2022-11-20T04:50:49;-1.00;99.90
59098;DHT22;44883;52.760;6.610;2022-11-20T04:53:15;-0.90;99.90
59098;DHT22;44883;52.760;6.610;2022-11-20T04:55:40;-0.90;99.90
59098;DHT22;44883;52.760;6.610;2022-11-20T04:58:06;-0.90;99.90
59098;DHT22;44883;52.760;6.610;2022-11-20T05:00:32;-0.80;99.90
59098;DHT22;44883;52.760;6.610;2022-11-20T05:02:58;-0.80;99.90
59098;DHT22;44883;52.760;6.610;2022-11-20T05:05:23;-0.80;99.90
59098;DHT22;44883;52.760;6.610;2022-11-20T05:07:49;-0.90;99.90
59098;DHT22;44883;52.760;6.610;2022-11-20T05:10:15;-0.80;99.90
59098;DHT22;44883;52.760;6.610;2022-11-20T05:12:41;-0.90;99.90
59098;DHT22;44883;52.760;6.610;2022-11-20T05:15:06;-0.90;99.90
59098;DHT22;44883;52.760;6.610;2022-11-20T05:17:32;-0.80;99.90
59098;DHT22;44883;52.760;6.610;2022-11-20T05:19:58;-0.80;99.90
59098;DHT22;44883;52.760;6.610;2022-11-20T05:22:23;-0.80;99.90
59098;DHT22;44883;52.760;6.610;2022-11-20T05:24:49;-0.80;99.90
59098;DHT22;44883;52.760;6.610;2022-11-20T05:27:15;-0.80;99.90
59098;DHT22;44883;52.760;6.610;2022-11-20T05:29:41;-0.70;99.90
59098;DHT22;44883;52.760;6.610;2022-11-20T05:32:06;-0.70;99.90
59098;DHT22;44883;52.760;6.610;2022-11-20T05:34:35;-0.70;99.90
59098;DHT22;44883;52.760;6.610;2022-11-20T05:37:01;-0.70;99.90
59098;DHT22;44883;52.760;6.610;2022-11-20T05:39:26;-0.70;99.90
59098;DHT22;44883;52.760;6.610;2022-11-20T05:41:52;-0.70;99.90
59098;DHT22;44883;52.760;6.610;2022-11-20T05:44:37;-0.70;99.90
59098;DHT22;44883;52.760;6.610;2022-11-20T05:47:03;-0.70;99.90
59098;DHT22;44883;52.760;6.610;2022-11-20T05:49:29;-0.70;99.90
59098;DHT22;44883;52.760;6.610;2022-11-20T05:51:54;-0.70;99.90
59098;DHT22;44883;52.760;6.610;2022-11-20T05:54:20;-0.70;99.90
59098;DHT22;44883;52.760;6.610;2022-11-20T05:56:45;-0.70;99.90
59098;DHT22;44883;52.760;6.610;2022-11-20T05:59:11;-0.70;99.90
59098;DHT22;44883;52.760;6.610;2022-11-20T06:01:36;-0.70;99.90
59098;DHT22;44883;52.760;6.610;2022-11-20T06:04:02;-0.70;99.90
59098;DHT22;44883;52.760;6.610;2022-11-20T06:06:28;-0.70;99.90
59098;DHT22;44883;52.760;6.610;2022-11-20T06:08:54;-0.70;99.90
59098;DHT22;44883;52.760;6.610;2022-11-20T06:11:20;-0.60;99.90
59098;DHT22;44883;52.760;6.610;2022-11-20T06:13:46;-0.60;99.90
59098;DHT22;44883;52.760;6.610;2022-11-20T06:16:16;-0.60;99.90
59098;DHT22;44883;52.760;6.610;2022-11-20T06:18:42;-0.60;99.90
59098;DHT22;44883;52.760;6.610;2022-11-20T06:21:13;-0.60;99.90
59098;DHT22;44883;52.760;6.610;2022-11-20T06:23:39;-0.70;99.90
59098;DHT22;44883;52.760;6.610;2022-11-20T06:26:16;-0.70;99.90
59098;DHT22;44883;52.760;6.610;2022-11-20T06:28:43;-0.70;99.90
59098;DHT22;44883;52.760;6.610;2022-11-20T06:31:12;-0.70;99.90
59098;DHT22;44883;52.760;6.610;2022-11-20T06:33:37;-0.70;99.90
59098;DHT22;44883;52.760;6.610;2022-11-20T06:36:04;-0.70;99.90
59098;DHT22;44883;52.760;6.610;2022-11-20T06:38:30;-0.70;99.90
59098;DHT22;44883;52.760;6.610;2022-11-20T06:40:56;-0.70;99.90
59098;DHT22;44883;52.760;6.610;2022-11-20T06:43:22;-0.70;99.90
59098;DHT22;44883;52.760;6.610;2022-11-20T06:45:54;-0.70;99.90
59098;DHT22;44883;52.760;6.610;2022-11-20T06:48:20;-0.70;99.90
59098;DHT22;44883;52.760;6.610;2022-11-20T06:50:46;-0.70;99.90
59098;DHT22;44883;52.760;6.610;2022-11-20T06:53:11;-0.60;99.90
59098;DHT22;44883;52.760;6.610;2022-11-20T06:55:37;-0.60;99.90
59098;DHT22;44883;52.760;6.610;2022-11-20T06:58:07;-0.60;99.90
59098;DHT22;44883;52.760;6.610;2022-11-20T07:00:32;-0.60;99.90
59098;DHT22;44883;52.760;6.610;2022-11-20T07:02:58;-0.60;99.90
59098;DHT22;44883;52.760;6.610;2022-11-20T07:05:23;-0.60;99.90
59098;DHT22;44883;52.760;6.610;2022-11-20T07:07:49;-0.60;99.90
59098;DHT22;44883;52.760;6.610;2022-11-20T07:10:14;-0.60;99.90
59098;DHT22;44883;52.760;6.610;2022-11-20T07:12:40;-0.60;99.90
59098;DHT22;44883;52.760;6.610;2022-11-20T07:15:06;-0.60;99.90
59098;DHT22;44883;52.760;6.610;2022-11-20T07:17:32;-0.60;99.90
59098;DHT22;44883;52.760;6.610;2022-11-20T07:19:57;-0.50;99.90
59098;DHT22;44883;52.760;6.610;2022-11-20T07:22:23;-0.50;99.90
59098;DHT22;44883;52.760;6.610;2022-11-20T07:24:48;-0.50;99.90
59098;DHT22;44883;52.760;6.610;2022-11-20T07:27:14;-0.50;99.90
59098;DHT22;44883;52.760;6.610;2022-11-20T07:29:39;-0.50;99.90
59098;DHT22;44883;52.760;6.610;2022-11-20T07:32:05;-0.50;99.90
59098;DHT22;44883;52.760;6.610;2022-11-20T07:34:31;-0.50;99.90
59098;DHT22;44883;52.760;6.610;2022-11-20T07:36:56;-0.40;99.90
59098;DHT22;44883;52.760;6.610;2022-11-20T07:39:22;-0.40;99.90
59098;DHT22;44883;52.760;6.610;2022-11-20T07:41:47;-0.40;99.90
59098;DHT22;44883;52.760;6.610;2022-11-20T07:44:13;-0.30;99.90
59098;DHT22;44883;52.760;6.610;2022-11-20T07:46:38;-0.30;99.90
59098;DHT22;44883;52.760;6.610;2022-11-20T07:49:04;-0.30;99.90
59098;DHT22;44883;52.760;6.610;2022-11-20T07:51:29;-0.30;99.90
59098;DHT22;44883;52.760;6.610;2022-11-20T07:53:55;-0.30;99.90
59098;DHT22;44883;52.760;6.610;2022-11-20T07:56:21;-0.20;99.90
59098;DHT22;44883;52.760;6.610;2022-11-20T07:58:46;-0.20;99.90
59098;DHT22;44883;52.760;6.610;2022-11-20T08:01:12;-0.20;99.90
59098;DHT22;44883;52.760;6.610;2022-11-20T08:03:37;-0.20;99.90
59098;DHT22;44883;52.760;6.610;2022-11-20T08:06:03;-0.20;99.90
59098;DHT22;44883;52.760;6.610;2022-11-20T08:08:29;-0.20;99.90
59098;DHT22;44883;52.760;6.610;2022-11-20T08:10:58;-0.20;99.90
59098;DHT22;44883;52.760;6.610;2022-11-20T08:13:44;-0.20;99.90
59098;DHT22;44883;52.760;6.610;2022-11-20T08:16:44;-0.20;99.90
59098;DHT22;44883;52.760;6.610;2022-11-20T08:19:11;-0.10;99.90
59098;DHT22;44883;52.760;6.610;2022-11-20T08:21:36;-0.10;99.90
59098;DHT22;44883;52.760;6.610;2022-11-20T08:24:02;-0.10;99.90
59098;DHT22;44883;52.760;6.610;2022-11-20T08:26:28;0.00;99.90
59098;DHT22;44883;52.760;6.610;2022-11-20T08:28:55;0.00;99.90
59098;DHT22;44883;52.760;6.610;2022-11-20T08:31:22;0.00;99.90
59098;DHT22;44883;52.760;6.610;2022-11-20T08:33:47;0.00;99.90
59098;DHT22;44883;52.760;6.610;2022-11-20T08:36:13;0.00;99.90
59098;DHT22;44883;52.760;6.610;2022-11-20T08:38:38;0.00;99.90
59098;DHT22;44883;52.760;6.610;2022-11-20T08:41:05;0.10;99.90
59098;DHT22;44883;52.760;6.610;2022-11-20T08:43:59;0.10;99.90
59098;DHT22;44883;52.760;6.610;2022-11-20T08:46:26;0.10;99.90
59098;DHT22;44883;52.760;6.610;2022-11-20T08:48:52;0.20;99.90
59098;DHT22;44883;52.760;6.610;2022-11-20T08:51:19;0.20;99.90
59098;DHT22;44883;52.760;6.610;2022-11-20T08:53:44;0.30;99.90
59098;DHT22;44883;52.760;6.610;2022-11-20T08:56:10;0.30;99.90
59098;DHT22;44883;52.760;6.610;2022-11-20T08:58:37;0.30;99.90
59098;DHT22;44883;52.760;6.610;2022-11-20T09:01:03;0.40;99.90
59098;DHT22;44883;52.760;6.610;2022-11-20T09:03:29;0.50;99.90
59098;DHT22;44883;52.760;6.610;2022-11-20T09:05:59;0.60;99.90
59098;DHT22;44883;52.760;6.610;2022-11-20T09:08:25;0.70;99.90
59098;DHT22;44883;52.760;6.610;2022-11-20T09:10:52;0.80;99.90
59098;DHT22;44883;52.760;6.610;2022-11-20T09:13:19;0.90;99.90
59098;DHT22;44883;52.760;6.610;2022-11-20T09:15:45;1.00;99.90
59098;DHT22;44883;52.760;6.610;2022-11-20T09:18:11;1.00;99.90
59098;DHT22;44883;52.760;6.610;2022-11-20T09:20:37;1.00;99.90
59098;DHT22;44883;52.760;6.610;2022-11-20T09:23:02;1.00;99.90
59098;DHT22;44883;52.760;6.610;2022-11-20T09:25:28;0.90;99.90
59098;DHT22;44883;52.760;6.610;2022-11-20T09:28:00;0.80;99.90
59098;DHT22;44883;52.760;6.610;2022-11-20T09:30:26;0.70;99.90
59098;DHT22;44883;52.760;6.610;2022-11-20T09:32:52;0.70;99.90
59098;DHT22;44883;52.760;6.610;2022-11-20T09:35:18;0.70;99.90
59098;DHT22;44883;52.760;6.610;2022-11-20T09:37:44;0.60;99.90
59098;DHT22;44883;52.760;6.610;2022-11-20T09:40:29;0.60;99.90
59098;DHT22;44883;52.760;6.610;2022-11-20T09:46:01;0.50;99.90
59098;DHT22;44883;52.760;6.610;2022-11-20T09:54:22;0.60;99.90
59098;DHT22;44883;52.760;6.610;2022-11-20T09:56:55;0.50;99.90
59098;DHT22;44883;52.760;6.610;2022-11-20T09:59:31;0.60;99.90
59098;DHT22;44883;52.760;6.610;2022-11-20T10:01:59;0.60;99.90
59098;DHT22;44883;52.760;6.610;2022-11-20T10:04:25;0.60;99.90
59098;DHT22;44883;52.760;6.610;2022-11-20T10:06:53;0.60;99.90
59098;DHT22;44883;52.760;6.610;2022-11-20T10:09:34;0.60;99.90
59098;DHT22;44883;52.760;6.610;2022-11-20T10:12:06;0.60;99.90
59098;DHT22;44883;52.760;6.610;2022-11-20T10:15:42;0.60;99.90
59098;DHT22;44883;52.760;6.610;2022-11-20T10:18:03;0.60;99.90
59098;DHT22;44883;52.760;6.610;2022-11-20T10:20:51;0.60;99.90
59098;DHT22;44883;52.760;6.610;2022-11-20T10:23:35;0.70;99.90
59098;DHT22;44883;52.760;6.610;2022-11-20T10:34:03;1.00;99.90
59098;DHT22;44883;52.760;6.610;2022-11-20T10:36:43;1.10;99.90
59098;DHT22;44883;52.760;6.610;2022-11-20T10:39:18;1.20;99.90
59098;DHT22;44883;52.760;6.610;2022-11-20T10:41:49;1.30;99.90
59098;DHT22;44883;52.760;6.610;2022-11-20T10:44:27;1.30;99.90
59098;DHT22;44883;52.760;6.610;2022-11-20T10:47:18;1.40;99.90
59098;DHT22;44883;52.760;6.610;2022-11-20T10:49:49;1.60;99.90
59098;DHT22;44883;52.760;6.610;2022-11-20T10:57:58;2.00;99.90
59098;DHT22;44883;52.760;6.610;2022-11-20T11:00:30;2.00;99.90
59098;DHT22;44883;52.760;6.610;2022-11-20T11:02:55;2.10;99.90
59098;DHT22;44883;52.760;6.610;2022-11-20T11:05:36;2.20;99.90
59098;DHT22;44883;52.760;6.610;2022-11-20T11:08:05;2.30;99.90
59098;DHT22;44883;52.760;6.610;2022-11-20T11:10:47;2.30;99.90
59098;DHT22;44883;52.760;6.610;2022-11-20T11:13:30;2.30;99.90
59098;DHT22;44883;52.760;6.610;2022-11-20T11:15:56;2.30;99.90
59098;DHT22;44883;52.760;6.610;2022-11-20T11:18:30;2.30;99.90
59098;DHT22;44883;52.760;6.610;2022-11-20T11:20:59;2.30;99.90
59098;DHT22;44883;52.760;6.610;2022-11-20T11:23:35;2.40;99.90
59098;DHT22;44883;52.760;6.610;2022-11-20T11:26:04;2.40;99.90
59098;DHT22;44883;52.760;6.610;2022-11-20T11:28:30;2.40;99.90
59098;DHT22;44883;52.760;6.610;2022-11-20T11:30:57;2.50;99.90
59098;DHT22;44883;52.760;6.610;2022-11-20T11:35:54;2.50;99.90
59098;DHT22;44883;52.760;6.610;2022-11-20T11:38:34;2.60;99.90
59098;DHT22;44883;52.760;6.610;2022-11-20T11:41:02;2.60;99.90
59098;DHT22;44883;52.760;6.610;2022-11-20T11:43:31;2.60;99.90
59098;DHT22;44883;52.760;6.610;2022-11-20T11:46:30;2.60;99.90
59098;DHT22;44883;52.760;6.610;2022-11-20T11:51:39;2.60;99.90
59098;DHT22;44883;52.760;6.610;2022-11-20T11:54:31;2.60;99.90
59098;DHT22;44883;52.760;6.610;2022-11-20T11:57:01;2.50;99.90
59098;DHT22;44883;52.760;6.610;2022-11-20T11:59:44;2.60;99.90
59098;DHT22;44883;52.760;6.610;2022-11-20T12:07:52;2.50;99.90
59098;DHT22;44883;52.760;6.610;2022-11-20T12:10:22;2.40;99.90
59098;DHT22;44883;52.760;6.610;2022-11-20T12:12:55;2.30;99.90
59098;DHT22;44883;52.760;6.610;2022-11-20T12:15:32;2.30;99.90
59098;DHT22;44883;52.760;6.610;2022-11-20T12:17:59;2.20;99.90
59098;DHT22;44883;52.760;6.610;2022-11-20T12:20:40;2.10;99.90
59098;DHT22;44883;52.760;6.610;2022-11-20T12:23:14;2.10;99.90
59098;DHT22;44883;52.760;6.610;2022-11-20T12:25:47;2.00;99.90
59098;DHT22;44883;52.760;6.610;2022-11-20T12:46:18;2.00;99.90
59098;DHT22;44883;52.760;6.610;2022-11-20T12:54:11;2.00;99.90
59098;DHT22;44883;52.760;6.610;2022-11-20T12:57:05;1.90;99.90
59098;DHT22;44883;52.760;6.610;2022-11-20T13:05:19;1.80;99.90
59098;DHT22;44883;52.760;6.610;2022-11-20T13:07:47;1.70;99.90
59098;DHT22;44883;52.760;6.610;2022-11-20T13:10:38;1.70;99.90
59098;DHT22;44883;52.760;6.610;2022-11-20T13:18:50;1.70;99.90
59098;DHT22;44883;52.760;6.610;2022-11-20T13:21:34;1.80;99.90
59098;DHT22;44883;52.760;6.610;2022-11-20T13:26:44;1.90;99.90
59098;DHT22;44883;52.760;6.610;2022-11-20T13:29:18;1.90;99.90
59098;DHT22;44883;52.760;6.610;2022-11-20T13:31:46;2.00;99.90
59098;DHT22;44883;52.760;6.610;2022-11-20T13:34:24;2.00;99.90
59098;DHT22;44883;52.760;6.610;2022-11-20T13:36:53;2.00;99.90
59098;DHT22;44883;52.760;6.610;2022-11-20T13:39:27;1.90;99.90
59098;DHT22;44883;52.760;6.610;2022-11-20T13:42:01;1.90;99.90
59098;DHT22;44883;52.760;6.610;2022-11-20T13:44:38;1.90;99.90
59098;DHT22;44883;52.760;6.610;2022-11-20T13:47:20;2.00;99.90
59098;DHT22;44883;52.760;6.610;2022-11-20T13:49:45;1.90;99.90
59098;DHT22;44883;52.760;6.610;2022-11-20T14:00:17;1.90;99.90
59098;DHT22;44883;52.760;6.610;2022-11-20T14:02:44;1.90;99.90
59098;DHT22;44883;52.760;6.610;2022-11-20T14:05:22;1.90;99.90
59098;DHT22;44883;52.760;6.610;2022-11-20T14:07:49;1.90;99.90
59098;DHT22;44883;52.760;6.610;2022-11-20T14:10:24;1.90;99.90
59098;DHT22;44883;52.760;6.610;2022-11-20T14:12:50;1.90;99.90
59098;DHT22;44883;52.760;6.610;2022-11-20T14:15:33;1.90;99.90
59098;DHT22;44883;52.760;6.610;2022-11-20T14:17:59;1.90;99.90
59098;DHT22;44883;52.760;6.610;2022-11-20T14:20:38;1.90;99.90
59098;DHT22;44883;52.760;6.610;2022-11-20T14:23:04;1.80;99.90
59098;DHT22;44883;52.760;6.610;2022-11-20T14:25:30;1.90;99.90
59098;DHT22;44883;52.760;6.610;2022-11-20T14:28:00;1.90;99.90
59098;DHT22;44883;52.760;6.610;2022-11-20T14:30:29;1.90;99.90
59098;DHT22;44883;52.760;6.610;2022-11-20T14:32:57;1.80;99.90
59098;DHT22;44883;52.760;6.610;2022-11-20T14:35:28;1.70;99.90
59098;DHT22;44883;52.760;6.610;2022-11-20T14:37:55;1.70;99.90
59098;DHT22;44883;52.760;6.610;2022-11-20T14:40:28;1.70;99.90
59098;DHT22;44883;52.760;6.610;2022-11-20T14:42:55;1.60;99.90
59098;DHT22;44883;52.760;6.610;2022-11-20T14:45:21;1.60;99.90
59098;DHT22;44883;52.760;6.610;2022-11-20T14:47:48;1.60;99.90
59098;DHT22;44883;52.760;6.610;2022-11-20T14:50:22;1.60;99.90
59098;DHT22;44883;52.760;6.610;2022-11-20T14:53:06;1.60;99.90
59098;DHT22;44883;52.760;6.610;2022-11-20T14:55:38;1.60;99.90
59098;DHT22;44883;52.760;6.610;2022-11-20T14:58:21;1.50;99.90
59098;DHT22;44883;52.760;6.610;2022-11-20T15:01:01;1.50;99.90
59098;DHT22;44883;52.760;6.610;2022-11-20T15:03:36;1.50;99.90
59098;DHT22;44883;52.760;6.610;2022-11-20T15:06:03;1.50;99.90
59098;DHT22;44883;52.760;6.610;2022-11-20T15:08:30;1.50;99.90
59098;DHT22;44883;52.760;6.610;2022-11-20T15:10:56;1.50;99.90
59098;DHT22;44883;52.760;6.610;2022-11-20T15:15:59;1.40;99.90
59098;DHT22;44883;52.760;6.610;2022-11-20T15:18:29;1.40;99.90
59098;DHT22;44883;52.760;6.610;2022-11-20T15:20:58;1.40;99.90
59098;DHT22;44883;52.760;6.610;2022-11-20T15:23:26;1.40;99.90
59098;DHT22;44883;52.760;6.610;2022-11-20T15:25:52;1.30;99.90
59098;DHT22;44883;52.760;6.610;2022-11-20T15:28:27;1.40;99.90
59098;DHT22;44883;52.760;6.610;2022-11-20T15:30:54;1.30;99.90
59098;DHT22;44883;52.760;6.610;2022-11-20T15:33:21;1.30;99.90
59098;DHT22;44883;52.760;6.610;2022-11-20T15:35:46;1.20;99.90
59098;DHT22;44883;52.760;6.610;2022-11-20T15:38:12;1.20;99.90
59098;DHT22;44883;52.760;6.610;2022-11-20T15:40:38;1.20;99.90
59098;DHT22;44883;52.760;6.610;2022-11-20T15:43:04;1.10;99.90
59098;DHT22;44883;52.760;6.610;2022-11-20T15:45:36;1.10;99.90
59098;DHT22;44883;52.760;6.610;2022-11-20T15:48:04;1.10;99.90
59098;DHT22;44883;52.760;6.610;2022-11-20T15:50:36;1.10;99.90
59098;DHT22;44883;52.760;6.610;2022-11-20T15:53:02;1.10;99.90
59098;DHT22;44883;52.760;6.610;2022-11-20T15:55:27;1.10;99.90
59098;DHT22;44883;52.760;6.610;2022-11-20T15:57:53;1.20;99.90
59098;DHT22;44883;52.760;6.610;2022-11-20T16:00:19;1.20;99.90
59098;DHT22;44883;52.760;6.610;2022-11-20T16:02:44;1.20;99.90
59098;DHT22;44883;52.760;6.610;2022-11-20T16:05:11;1.30;99.90
59098;DHT22;44883;52.760;6.610;2022-11-20T16:07:37;1.30;99.90
59098;DHT22;44883;52.760;6.610;2022-11-20T16:10:04;1.30;99.90
59098;DHT22;44883;52.760;6.610;2022-11-20T16:12:29;1.30;99.90
59098;DHT22;44883;52.760;6.610;2022-11-20T16:15:14;1.30;99.90
59098;DHT22;44883;52.760;6.610;2022-11-20T16:17:58;1.30;99.90
59098;DHT22;44883;52.760;6.610;2022-11-20T16:20:24;1.30;99.90
59098;DHT22;44883;52.760;6.610;2022-11-20T16:22:49;1.40;99.90
59098;DHT22;44883;52.760;6.610;2022-11-20T16:25:15;1.30;99.90
59098;DHT22;44883;52.760;6.610;2022-11-20T16:27:41;1.40;99.90
59098;DHT22;44883;52.760;6.610;2022-11-20T16:30:07;1.30;99.90
59098;DHT22;44883;52.760;6.610;2022-11-20T16:32:33;1.30;99.90
59098;DHT22;44883;52.760;6.610;2022-11-20T16:34:58;1.30;99.90
59098;DHT22;44883;52.760;6.610;2022-11-20T16:37:24;1.30;99.90
59098;DHT22;44883;52.760;6.610;2022-11-20T16:39:49;1.30;99.90
59098;DHT22;44883;52.760;6.610;2022-11-20T16:42:15;1.30;99.90
59098;DHT22;44883;52.760;6.610;2022-11-20T16:44:41;1.30;99.90
59098;DHT22;44883;52.760;6.610;2022-11-20T16:47:06;1.20;99.90
59098;DHT22;44883;52.760;6.610;2022-11-20T16:49:32;1.30;99.90
59098;DHT22;44883;52.760;6.610;2022-11-20T16:51:58;1.30;99.90
59098;DHT22;44883;52.760;6.610;2022-11-20T16:54:24;1.30;99.90
59098;DHT22;44883;52.760;6.610;2022-11-20T16:56:49;1.30;99.90
59098;DHT22;44883;52.760;6.610;2022-11-20T16:59:17;1.30;99.90
59098;DHT22;44883;52.760;6.610;2022-11-20T17:01:43;1.30;99.90
59098;DHT22;44883;52.760;6.610;2022-11-20T17:04:09;1.30;99.90
59098;DHT22;44883;52.760;6.610;2022-11-20T17:06:36;1.30;99.90
59098;DHT22;44883;52.760;6.610;2022-11-20T17:09:03;1.20;99.90
59098;DHT22;44883;52.760;6.610;2022-11-20T17:11:29;1.30;99.90
59098;DHT22;44883;52.760;6.610;2022-11-20T17:13:58;1.30;99.90
59098;DHT22;44883;52.760;6.610;2022-11-20T17:16:25;1.30;99.90